Time;durP1;ratioP1;P1;durP2;ratioP2;P2;SDS_P1;SDS_P2;PMS_P1;PMS_P2;Temp;Humidity;BMP_temperature;BMP_pressure;BME280_temperature;BME280_humidity;BME280_pressure;Samples;Min_cycle;Max_cycle;Signal;HPM_P1;HPM_P2
2022/02/24 00:02:17;;;;;;;8.17;3.40;;;;;;;-1.36;100.00;101367.34;5026527;28;20199;-75
2022/02/24 00:04:43;;;;;;;13.30;3.47;;;;;;;-1.38;100.00;101360.44;5021900;28;20208;-74
2022/02/24 00:07:09;;;;;;;6.67;3.70;;;;;;;-1.40;100.00;101364.63;5029556;28;20216;-74
2022/02/24 00:09:36;;;;;;;4.67;2.97;;;;;;;-1.40;100.00;101367.19;5020964;28;20219;-76
2022/02/24 00:12:04;;;;;;;5.73;3.33;;;;;;;-1.41;100.00;101352.66;5027303;28;20566;-74
2022/02/24 00:14:31;;;;;;;6.77;3.43;;;;;;;-1.39;100.00;101351.00;5018854;28;20242;-75
2022/02/24 00:16:59;;;;;;;10.50;3.70;;;;;;;-1.44;100.00;101356.00;5024582;28;20207;-74
2022/02/24 00:19:25;;;;;;;7.87;3.70;;;;;;;-1.43;100.00;101342.34;5025719;28;20208;-74
2022/02/24 00:21:51;;;;;;;6.73;3.40;;;;;;;-1.43;100.00;101339.81;5025383;28;20216;-74
2022/02/24 00:24:18;;;;;;;10.23;3.57;;;;;;;-1.40;100.00;101342.47;5026586;28;20554;-74
2022/02/24 00:26:45;;;;;;;9.73;3.63;;;;;;;-1.40;100.00;101339.91;5026761;28;20199;-74
2022/02/24 00:29:11;;;;;;;9.67;3.37;;;;;;;-1.40;100.00;101346.72;5024692;28;20204;-75
2022/02/24 00:31:38;;;;;;;7.00;3.80;;;;;;;-1.43;100.00;101344.06;5024247;28;20212;-75
2022/02/24 00:34:06;;;;;;;9.37;3.33;;;;;;;-1.46;100.00;101342.28;5022486;28;20200;-75
2022/02/24 00:36:33;;;;;;;8.57;3.73;;;;;;;-1.43;100.00;101333.81;5027974;28;20203;-75
2022/02/24 00:38:59;;;;;;;9.27;3.50;;;;;;;-1.42;100.00;101331.31;5029561;28;20680;-76
2022/02/24 00:41:26;;;;;;;8.10;3.30;;;;;;;-1.39;100.00;101336.56;5027113;28;20241;-74
2022/02/24 00:43:52;;;;;;;6.93;3.40;;;;;;;-1.43;100.00;101332.13;5021819;28;20681;-74
2022/02/24 00:46:19;;;;;;;12.87;3.20;;;;;;;-1.43;100.00;101333.81;5026488;28;20193;-76
2022/02/24 00:48:45;;;;;;;12.70;3.30;;;;;;;-1.45;100.00;101331.22;5017872;28;20581;-76
2022/02/24 00:51:13;;;;;;;11.30;3.60;;;;;;;-1.42;100.00;101326.22;5025643;28;20227;-75
2022/02/24 00:53:41;;;;;;;6.03;3.20;;;;;;;-1.40;100.00;101327.13;5019886;28;20192;-74
2022/02/24 00:56:08;;;;;;;10.50;3.40;;;;;;;-1.36;100.00;101328.09;5022216;28;20582;-75
2022/02/24 00:58:35;;;;;;;7.27;2.97;;;;;;;-1.37;100.00;101329.78;5022583;28;20196;-73
2022/02/24 01:01:01;;;;;;;8.60;2.83;;;;;;;-1.35;100.00;101323.03;5022041;28;20220;-74
2022/02/24 01:03:27;;;;;;;7.90;3.27;;;;;;;-1.34;100.00;101323.91;5023608;28;20199;-75
2022/02/24 01:05:54;;;;;;;13.20;3.13;;;;;;;-1.30;100.00;101322.31;5028964;28;20217;-74
2022/02/24 01:08:22;;;;;;;5.43;3.17;;;;;;;-1.33;100.00;101323.09;5026268;28;20222;-74
2022/02/24 01:10:48;;;;;;;11.57;3.40;;;;;;;-1.34;100.00;101318.78;5026001;28;20224;-74
2022/02/24 01:13:15;;;;;;;9.73;3.40;;;;;;;-1.33;100.00;101315.41;5022392;28;20207;-74
2022/02/24 01:15:42;;;;;;;7.73;2.97;;;;;;;-1.34;100.00;101313.66;5022501;28;20212;-74
2022/02/24 01:18:09;;;;;;;8.77;3.03;;;;;;;-1.39;100.00;101308.41;5021074;28;20601;-74
2022/02/24 01:20:36;;;;;;;7.10;2.80;;;;;;;-1.44;100.00;101302.25;5024574;28;20229;-75
2022/02/24 01:23:03;;;;;;;5.33;2.70;;;;;;;-1.46;100.00;101301.34;5021664;28;20208;-74
2022/02/24 01:25:32;;;;;;;6.20;2.67;;;;;;;-1.50;100.00;101296.94;5023602;28;20204;-74
2022/02/24 01:27:58;;;;;;;7.90;3.00;;;;;;;-1.49;100.00;101298.69;5020423;28;20224;-74
2022/02/24 01:30:24;;;;;;;6.07;2.80;;;;;;;-1.49;100.00;101292.72;5026304;28;20266;-74
2022/02/24 01:32:51;;;;;;;7.50;2.67;;;;;;;-1.48;100.00;101277.38;5020638;28;20219;-74
2022/02/24 01:35:18;;;;;;;8.57;2.60;;;;;;;-1.47;100.00;101285.94;5026620;28;20213;-74
2022/02/24 01:37:44;;;;;;;9.90;2.90;;;;;;;-1.48;100.00;101276.53;5019041;28;20994;-74
2022/02/24 01:40:13;;;;;;;6.83;2.57;;;;;;;-1.52;100.00;101271.28;5026649;28;20648;-74
2022/02/24 01:42:41;;;;;;;4.47;2.77;;;;;;;-1.54;100.00;101265.25;5023005;28;20197;-74
2022/02/24 01:45:09;;;;;;;6.17;2.33;;;;;;;-1.54;100.00;101272.94;5028205;28;20200;-74
2022/02/24 01:47:35;;;;;;;8.80;2.90;;;;;;;-1.51;100.00;101261.94;5025351;28;20207;-75
2022/02/24 01:50:02;;;;;;;6.50;2.77;;;;;;;-1.48;100.00;101256.91;5024252;28;20192;-74
2022/02/24 01:52:29;;;;;;;6.57;2.43;;;;;;;-1.49;100.00;101255.19;5026291;28;20202;-74
2022/02/24 01:54:56;;;;;;;8.77;2.77;;;;;;;-1.54;100.00;101249.91;5024461;28;20564;-74
2022/02/24 01:57:22;;;;;;;6.53;2.60;;;;;;;-1.57;100.00;101242.13;5021836;28;20200;-74
2022/02/24 01:59:50;;;;;;;7.60;2.37;;;;;;;-1.58;100.00;101242.97;5025417;28;20211;-74
2022/02/24 02:02:16;;;;;;;9.93;2.90;;;;;;;-1.62;100.00;101242.81;5023163;28;20673;-74
2022/02/24 02:04:44;;;;;;;5.47;2.73;;;;;;;-1.62;100.00;101230.91;5027449;28;20203;-74
2022/02/24 02:07:10;;;;;;;9.07;2.53;;;;;;;-1.64;100.00;101234.22;5022876;28;20267;-74
2022/02/24 02:09:37;;;;;;;7.47;2.50;;;;;;;-1.64;100.00;101235.06;5021789;28;20196;-74
2022/02/24 02:12:05;;;;;;;7.87;2.33;;;;;;;-1.65;100.00;101238.47;5027435;28;20298;-75
2022/02/24 02:14:32;;;;;;;4.90;2.33;;;;;;;-1.70;100.00;101232.34;5027658;28;20206;-74
2022/02/24 02:17:01;;;;;;;6.00;2.67;;;;;;;-1.68;100.00;101238.38;5027563;28;20208;-75
2022/02/24 02:19:28;;;;;;;5.37;2.30;;;;;;;-1.72;100.00;101232.28;5027538;28;20184;-74
2022/02/24 02:21:56;;;;;;;3.27;2.33;;;;;;;-1.71;100.00;101228.03;5028232;28;20247;-74
2022/02/24 02:24:23;;;;;;;6.90;2.87;;;;;;;-1.73;100.00;101220.28;5029570;28;20200;-74
2022/02/24 02:26:49;;;;;;;7.07;2.50;;;;;;;-1.79;100.00;101219.25;5030219;28;20189;-74
2022/02/24 02:29:17;;;;;;;4.30;2.40;;;;;;;-1.84;100.00;101213.97;5023292;28;20734;-74
2022/02/24 02:31:47;;;;;;;5.97;2.53;;;;;;;-1.88;100.00;101219.81;5030350;28;20215;-75
2022/02/24 02:34:16;;;;;;;5.03;2.40;;;;;;;-1.88;100.00;101218.91;5025103;28;20204;-74
2022/02/24 02:36:45;;;;;;;6.07;2.50;;;;;;;-1.93;100.00;101222.19;5025887;28;20449;-74
2022/02/24 02:39:14;;;;;;;4.97;2.30;;;;;;;-1.96;100.00;101214.41;5025343;28;20207;-75
2022/02/24 02:41:43;;;;;;;6.07;2.50;;;;;;;-1.95;100.00;101211.06;5022941;28;20223;-74
2022/02/24 02:44:11;;;;;;;2.87;2.13;;;;;;;-2.08;100.00;101208.00;5022867;28;20284;-75
2022/02/24 02:46:38;;;;;;;3.67;2.20;;;;;;;-2.12;100.00;101215.56;5029009;28;20989;-74
2022/02/24 02:49:05;;;;;;;5.23;2.60;;;;;;;-2.07;100.00;101204.66;5023449;28;20299;-76
2022/02/24 02:51:32;;;;;;;4.87;2.17;;;;;;;-2.16;100.00;101202.66;5028148;28;20474;-75
2022/02/24 02:53:58;;;;;;;3.80;2.30;;;;;;;-2.21;100.00;101199.94;5020064;28;20200;-74
2022/02/24 02:56:26;;;;;;;5.60;2.47;;;;;;;-2.21;100.00;101207.59;5027834;28;20196;-74
2022/02/24 02:58:52;;;;;;;4.10;2.13;;;;;;;-2.21;100.00;101199.94;5026273;28;20494;-74
2022/02/24 03:01:19;;;;;;;5.63;2.33;;;;;;;-2.22;100.00;101190.50;5030081;28;20482;-76
2022/02/24 03:03:46;;;;;;;4.70;2.27;;;;;;;-2.19;100.00;101185.50;5025916;28;20196;-76
2022/02/24 03:06:13;;;;;;;6.73;2.63;;;;;;;-2.12;100.00;101181.50;5027209;28;20464;-74
2022/02/24 03:08:39;;;;;;;8.07;2.63;;;;;;;-2.03;100.00;101176.69;5026107;28;20214;-75
2022/02/24 03:11:05;;;;;;;9.07;3.27;;;;;;;-1.97;100.00;101174.34;5028274;28;20220;-74
2022/02/24 03:13:34;;;;;;;7.10;3.10;;;;;;;-1.94;100.00;101171.00;5027433;28;21004;-75
2022/02/24 03:16:01;;;;;;;4.77;2.90;;;;;;;-1.88;100.00;101166.13;5026230;28;20509;-76
2022/02/24 03:18:27;;;;;;;8.30;2.90;;;;;;;-1.81;100.00;101164.63;5022012;28;20271;-74
2022/02/24 03:20:54;;;;;;;6.63;3.10;;;;;;;-1.79;100.00;101155.34;5026502;28;20772;-74
2022/02/24 03:23:20;;;;;;;7.37;2.70;;;;;;;-1.78;100.00;101152.81;5022111;28;20451;-75
2022/02/24 03:25:46;;;;;;;5.93;3.10;;;;;;;-1.73;100.00;101151.25;5026691;28;20828;-74
2022/02/24 03:28:13;;;;;;;7.93;2.70;;;;;;;-1.72;100.00;101144.47;5015743;28;20216;-74
2022/02/24 03:30:41;;;;;;;10.00;3.20;;;;;;;-1.69;100.00;101141.13;5025503;28;20635;-76
2022/02/24 03:33:08;;;;;;;6.73;3.00;;;;;;;-1.73;100.00;101132.50;5023150;28;20200;-75
2022/02/24 03:35:34;;;;;;;8.70;3.50;;;;;;;-1.72;100.00;101131.69;5027316;28;20589;-76
2022/02/24 03:38:00;;;;;;;5.20;2.83;;;;;;;-1.70;100.00;101124.94;5022019;28;20568;-74
2022/02/24 03:40:27;;;;;;;8.57;3.33;;;;;;;-1.66;100.00;101128.47;5025953;28;20240;-75
2022/02/24 03:42:54;;;;;;;10.53;3.20;;;;;;;-1.66;100.00;101131.88;5023419;28;20208;-75
2022/02/24 03:45:21;;;;;;;6.50;2.93;;;;;;;-1.63;100.00;101124.31;5026703;28;20215;-75
2022/02/24 03:47:49;;;;;;;7.50;2.67;;;;;;;-1.60;100.00;101123.53;5024377;28;20696;-76
2022/02/24 03:50:16;;;;;;;7.83;2.60;;;;;;;-1.61;100.00;101112.44;5026015;28;20227;-77
2022/02/24 03:52:45;;;;;;;6.03;2.83;;;;;;;-1.64;100.00;101120.00;5019279;28;20200;-74
2022/02/24 03:55:13;;;;;;;6.43;2.87;;;;;;;-1.63;100.00;101110.66;5025545;28;20275;-75
2022/02/24 03:57:41;;;;;;;7.13;2.97;;;;;;;-1.62;100.00;101113.28;5023324;28;20609;-75
2022/02/24 04:00:09;;;;;;;9.40;2.57;;;;;;;-1.60;100.00;101105.63;5021773;28;20470;-75
2022/02/24 04:02:39;;;;;;;5.10;2.30;;;;;;;-1.62;100.00;101104.72;5022615;28;20207;-76
2022/02/24 04:05:09;;;;;;;9.67;2.73;;;;;;;-1.59;100.00;101099.69;5026355;28;20314;-75
2022/02/24 04:07:36;;;;;;;10.23;2.93;;;;;;;-1.58;100.00;101096.34;5021706;28;20761;-74
2022/02/24 04:10:05;;;;;;;6.53;2.53;;;;;;;-1.59;100.00;101098.00;5024130;28;20219;-74
2022/02/24 04:12:31;;;;;;;7.57;2.93;;;;;;;-1.64;100.00;101093.56;5023309;28;20287;-76
2022/02/24 04:14:58;;;;;;;5.87;2.70;;;;;;;-1.66;100.00;101090.09;5022704;28;20299;-74
2022/02/24 04:17:24;;;;;;;7.33;2.57;;;;;;;-1.67;100.00;101088.34;5020724;28;20565;-75
2022/02/24 04:19:51;;;;;;;6.20;2.90;;;;;;;-1.69;100.00;101084.88;5025912;28;20453;-75
2022/02/24 04:22:19;;;;;;;9.80;2.87;;;;;;;-1.68;100.00;101077.28;5022812;28;20200;-75
2022/02/24 04:24:45;;;;;;;6.40;2.67;;;;;;;-1.72;100.00;101071.19;5027264;28;20195;-75
2022/02/24 04:27:11;;;;;;;5.17;2.67;;;;;;;-1.71;100.00;101072.06;5022202;28;20196;-75
2022/02/24 04:29:38;;;;;;;10.87;3.07;;;;;;;-1.71;100.00;101066.94;5022969;28;20469;-74
2022/02/24 04:32:05;;;;;;;4.07;2.20;;;;;;;-1.73;100.00;101066.88;5024251;28;20582;-74
2022/02/24 04:34:31;;;;;;;10.00;3.00;;;;;;;-1.76;100.00;101060.81;5024724;28;20207;-74
2022/02/24 04:36:58;;;;;;;5.83;2.80;;;;;;;-1.81;100.00;101054.69;5021342;28;21133;-75
2022/02/24 04:39:25;;;;;;;9.83;2.90;;;;;;;-1.82;100.00;101055.53;5025633;28;20553;-74
2022/02/24 04:41:52;;;;;;;4.33;2.67;;;;;;;-1.80;100.00;101054.75;5023650;28;20227;-74
2022/02/24 04:44:18;;;;;;;5.57;3.00;;;;;;;-1.83;100.00;101053.78;5023004;28;20561;-74
2022/02/24 04:46:44;;;;;;;7.40;3.23;;;;;;;-1.86;100.00;101043.47;5024335;28;20207;-75
2022/02/24 04:49:11;;;;;;;5.03;2.57;;;;;;;-1.87;100.00;101042.59;5024840;28;20223;-75
2022/02/24 04:51:38;;;;;;;8.43;2.93;;;;;;;-1.89;100.00;101038.25;5020359;28;20250;-76
2022/02/24 04:54:04;;;;;;;11.60;3.07;;;;;;;-1.92;100.00;101028.78;5025545;28;20525;-75
2022/02/24 04:56:32;;;;;;;11.50;2.70;;;;;;;-1.93;100.00;101025.38;5024391;28;20206;-74
2022/02/24 04:58:59;;;;;;;6.20;2.80;;;;;;;-1.95;100.00;101024.47;5015937;28;20578;-75
2022/02/24 05:01:27;;;;;;;7.07;3.00;;;;;;;-1.99;100.00;101014.94;5024838;28;20224;-75
2022/02/24 05:03:53;;;;;;;5.23;2.57;;;;;;;-1.99;100.00;101009.84;5025655;28;20211;-75
2022/02/24 05:06:20;;;;;;;4.83;2.70;;;;;;;-1.98;100.00;101018.41;5020873;28;20196;-74
2022/02/24 05:08:46;;;;;;;8.00;2.80;;;;;;;-2.02;100.00;101020.00;5019149;28;20223;-76
2022/02/24 05:11:13;;;;;;;5.77;2.87;;;;;;;-2.04;100.00;101015.63;5028834;28;20226;-78
2022/02/24 05:13:40;;;;;;;10.00;2.90;;;;;;;-2.03;100.00;101013.13;5020285;28;20196;-75
2022/02/24 05:16:07;;;;;;;6.30;2.73;;;;;;;-2.01;100.00;101014.03;5023810;28;20211;-75
2022/02/24 05:18:33;;;;;;;6.30;2.73;;;;;;;-2.01;100.00;101023.41;5023703;28;20825;-75
2022/02/24 05:21:00;;;;;;;8.20;2.80;;;;;;;-2.06;100.00;101017.28;5022455;28;20478;-75
2022/02/24 05:23:26;;;;;;;6.37;2.70;;;;;;;-2.13;100.00;101017.09;5025570;28;20491;-74
2022/02/24 05:25:52;;;;;;;7.93;2.73;;;;;;;-2.16;100.00;101014.44;5022584;28;20196;-76
2022/02/24 05:28:19;;;;;;;6.10;3.10;;;;;;;-2.19;100.00;101013.47;5023118;28;20457;-74
2022/02/24 05:30:47;;;;;;;8.83;2.80;;;;;;;-2.21;100.00;101010.88;5027151;28;20476;-75
2022/02/24 05:33:15;;;;;;;6.97;3.17;;;;;;;-2.26;100.00;101009.84;5025609;28;20438;-74
2022/02/24 05:35:42;;;;;;;4.57;3.03;;;;;;;-2.28;100.00;101014.91;5024275;28;20462;-74
2022/02/24 05:38:08;;;;;;;7.87;2.77;;;;;;;-2.31;100.00;101013.94;5022948;28;20204;-75
2022/02/24 05:40:34;;;;;;;5.63;2.93;;;;;;;-2.31;100.00;100996.06;5025101;28;20477;-75
2022/02/24 05:43:01;;;;;;;7.80;2.63;;;;;;;-2.35;100.00;101004.44;5018044;28;20458;-75
2022/02/24 05:45:27;;;;;;;10.33;3.23;;;;;;;-2.39;100.00;101006.03;5024467;28;20462;-75
2022/02/24 05:47:55;;;;;;;4.47;2.80;;;;;;;-2.36;100.00;101003.56;5019289;28;20466;-75
2022/02/24 05:50:21;;;;;;;5.33;2.80;;;;;;;-2.36;100.00;100998.44;5028372;28;20873;-74
2022/02/24 05:52:48;;;;;;;8.47;3.13;;;;;;;-2.43;100.00;100993.97;5021399;28;20458;-74
2022/02/24 05:55:14;;;;;;;9.33;3.17;;;;;;;-2.44;100.00;100991.38;5026797;28;20829;-75
2022/02/24 05:57:42;;;;;;;9.23;3.27;;;;;;;-2.43;100.00;100981.19;5025805;28;20481;-75
2022/02/24 06:00:10;;;;;;;10.43;3.30;;;;;;;-2.47;100.00;100984.47;5028813;28;20502;-75
2022/02/24 06:02:40;;;;;;;5.90;3.13;;;;;;;-2.48;100.00;100977.63;5022789;28;20464;-77
2022/02/24 06:05:08;;;;;;;9.53;3.40;;;;;;;-2.46;100.00;100986.22;5019647;28;20929;-74
2022/02/24 06:07:35;;;;;;;5.67;2.97;;;;;;;-2.49;100.00;100981.88;5028772;28;20513;-74
2022/02/24 06:10:01;;;;;;;5.27;3.00;;;;;;;-2.46;100.00;100981.13;5029826;28;21003;-74
2022/02/24 06:12:28;;;;;;;6.17;2.90;;;;;;;-2.44;100.00;100959.06;5015946;28;20467;-75
2022/02/24 06:14:57;;;;;;;30.93;16.33;;;;;;;-2.45;100.00;100961.56;5023884;28;20469;-74
2022/02/24 06:17:24;;;;;;;42.07;19.17;;;;;;;-2.42;100.00;100954.00;5022826;28;20461;-74
2022/02/24 06:19:50;;;;;;;33.27;21.40;;;;;;;-2.40;100.00;100960.88;5024841;28;20971;-74
2022/02/24 06:22:18;;;;;;;19.43;11.87;;;;;;;-2.36;100.00;100962.69;5023168;28;20470;-75
2022/02/24 06:24:44;;;;;;;17.07;11.47;;;;;;;-2.29;100.00;100956.09;5024621;28;20450;-74
2022/02/24 06:27:10;;;;;;;14.20;7.27;;;;;;;-2.16;100.00;100954.81;5025050;28;20469;-74
2022/02/24 06:29:37;;;;;;;14.90;6.07;;;;;;;-2.12;100.00;100949.81;5025819;28;20823;-74
2022/02/24 06:32:05;;;;;;;16.23;6.50;;;;;;;-2.04;100.00;100944.97;5024343;28;20478;-74
2022/02/24 06:34:31;;;;;;;8.30;4.93;;;;;;;-1.97;100.00;100941.78;5023586;28;20462;-74
2022/02/24 06:36:58;;;;;;;11.70;4.70;;;;;;;-1.87;100.00;100948.00;5019742;28;20470;-74
2022/02/24 06:39:26;;;;;;;10.13;5.20;;;;;;;-1.79;100.00;100946.56;5027133;28;20464;-74
2022/02/24 06:41:53;;;;;;;8.73;4.13;;;;;;;-1.64;100.00;100938.44;5023094;28;20219;-75
2022/02/24 06:44:21;;;;;;;8.20;4.07;;;;;;;-1.51;100.00;100939.69;5023065;28;20465;-75
2022/02/24 06:46:48;;;;;;;8.90;3.87;;;;;;;-1.38;100.00;100936.63;5025553;28;20243;-74
2022/02/24 06:49:14;;;;;;;6.57;3.07;;;;;;;-1.20;100.00;100930.28;5024104;28;20221;-75
2022/02/24 06:51:41;;;;;;;9.03;3.83;;;;;;;-0.98;100.00;100919.78;5025932;28;20225;-75
2022/02/24 06:54:07;;;;;;;9.90;4.80;;;;;;;-0.78;100.00;100907.47;5033479;28;20216;-75
2022/02/24 06:56:38;;;;;;;12.70;4.97;;;;;;;-0.51;100.00;100901.31;5020971;28;20685;-74
2022/02/24 06:59:05;;;;;;;12.10;4.10;;;;;;;-0.31;100.00;100901.75;5023599;28;20469;-75
2022/02/24 07:01:32;;;;;;;7.87;3.77;;;;;;;-0.23;100.00;100907.91;5024737;28;20230;-75
2022/02/24 07:03:59;;;;;;;6.97;3.57;;;;;;;-0.12;100.00;100913.28;5025879;28;20214;-73
2022/02/24 07:06:25;;;;;;;7.37;3.33;;;;;;;-0.04;100.00;100910.88;5023866;28;20228;-74
2022/02/24 07:08:51;;;;;;;5.20;2.40;;;;;;;0.08;100.00;100916.25;5023680;28;20192;-72
2022/02/24 07:11:18;;;;;;;7.97;2.97;;;;;;;0.23;100.00;100904.59;5028503;28;20740;-75
2022/02/24 07:13:45;;;;;;;5.93;2.80;;;;;;;0.45;100.00;100903.34;5028631;28;20192;-75
2022/02/24 07:16:12;;;;;;;4.93;2.73;;;;;;;0.66;99.71;100908.88;5022933;28;20227;-74
2022/02/24 07:18:38;;;;;;;5.40;2.57;;;;;;;0.71;99.77;100902.13;5028841;28;20204;-74
2022/02/24 07:21:07;;;;;;;4.07;2.53;;;;;;;0.86;98.76;100896.44;5027070;28;20765;-75
2022/02/24 07:23:34;;;;;;;6.77;2.60;;;;;;;1.02;97.79;100900.13;5020552;28;20212;-72
2022/02/24 07:26:01;;;;;;;10.67;2.97;;;;;;;1.18;97.18;100906.38;5020984;28;21076;-74
2022/02/24 07:28:30;;;;;;;5.10;2.63;;;;;;;1.32;96.08;100898.91;5019966;28;20212;-77
2022/02/24 07:30:58;;;;;;;6.50;2.73;;;;;;;1.51;94.49;100900.03;5017400;28;20247;-75
2022/02/24 07:33:24;;;;;;;4.23;2.20;;;;;;;1.58;94.04;100901.00;5023181;28;20207;-74
2022/02/24 07:35:51;;;;;;;7.20;2.53;;;;;;;1.73;92.20;100908.94;5020463;28;20211;-74
2022/02/24 07:38:18;;;;;;;6.37;2.13;;;;;;;1.84;92.27;100903.97;5023982;28;20204;-75
2022/02/24 07:40:44;;;;;;;3.50;2.10;;;;;;;1.94;91.81;100899.81;5020354;28;20354;-76
2022/02/24 07:43:10;;;;;;;5.53;2.57;;;;;;;1.99;91.77;100899.03;5024689;28;20242;-74
2022/02/24 07:45:37;;;;;;;7.00;2.30;;;;;;;2.13;90.55;100901.78;5023317;28;20206;-75
2022/02/24 07:48:05;;;;;;;5.03;1.80;;;;;;;2.21;90.36;100904.44;5023231;28;20196;-74
2022/02/24 07:50:31;;;;;;;6.70;2.17;;;;;;;2.32;89.58;100895.13;5018385;28;20234;-73
2022/02/24 07:52:58;;;;;;;4.20;2.30;;;;;;;2.45;89.43;100893.59;5024422;28;20219;-74
2022/02/24 07:55:24;;;;;;;7.63;2.10;;;;;;;2.50;89.31;100888.47;5021267;28;20256;-73
2022/02/24 07:57:51;;;;;;;3.43;2.17;;;;;;;2.64;88.05;100880.06;5021859;28;20205;-74
2022/02/24 08:00:18;;;;;;;4.47;1.77;;;;;;;2.75;87.81;100874.19;5021148;28;20302;-75
2022/02/24 08:02:45;;;;;;;4.77;2.27;;;;;;;2.95;86.47;100874.34;5019219;28;20678;-75
2022/02/24 08:05:13;;;;;;;2.93;1.77;;;;;;;3.06;86.56;100869.28;5020787;28;20289;-73
2022/02/24 08:07:40;;;;;;;6.13;2.33;;;;;;;3.16;85.55;100860.78;5019547;28;20227;-74
2022/02/24 08:10:08;;;;;;;7.60;2.27;;;;;;;3.31;84.84;100862.66;5018461;28;20222;-75
2022/02/24 08:12:42;;;;;;;8.40;1.93;;;;;;;3.40;85.50;100852.38;5017262;28;20200;-74
2022/02/24 08:15:10;;;;;;;4.47;1.80;;;;;;;3.48;84.87;100850.69;5019228;28;20844;-74
2022/02/24 08:17:37;;;;;;;4.40;2.07;;;;;;;3.62;83.13;100844.78;5021609;28;20624;-75
2022/02/24 08:20:05;;;;;;;5.60;2.03;;;;;;;3.70;83.92;100843.97;5016600;28;20612;-75
2022/02/24 08:22:34;;;;;;;9.17;2.50;;;;;;;3.83;83.30;100844.03;5020860;28;20214;-74
2022/02/24 08:25:00;;;;;;;6.13;2.30;;;;;;;3.95;82.78;100829.47;5026740;28;20198;-74
2022/02/24 08:27:26;;;;;;;7.40;2.73;;;;;;;4.13;82.57;100826.13;5023307;28;20197;-74
2022/02/24 08:29:53;;;;;;;4.73;2.00;;;;;;;4.25;81.65;100816.69;5023634;28;20216;-74
2022/02/24 08:32:19;;;;;;;3.73;2.07;;;;;;;4.36;81.56;100821.03;5017616;28;20210;-75
2022/02/24 08:34:45;;;;;;;5.60;2.10;;;;;;;4.47;79.86;100817.63;5023262;28;20927;-75
2022/02/24 08:37:12;;;;;;;5.60;2.13;;;;;;;4.52;79.69;100811.59;5024299;28;20200;-72
2022/02/24 08:39:39;;;;;;;2.60;1.77;;;;;;;4.60;79.06;100821.06;5023449;28;20599;-75
2022/02/24 08:42:06;;;;;;;7.20;2.53;;;;;;;4.61;79.36;100803.00;5025008;28;20234;-79
2022/02/24 08:44:33;;;;;;;5.10;2.43;;;;;;;4.65;78.28;100803.88;5017843;28;20258;-75
2022/02/24 08:46:59;;;;;;;6.87;2.40;;;;;;;4.69;79.09;100796.09;5012471;28;20196;-74
2022/02/24 08:49:26;;;;;;;5.13;2.27;;;;;;;4.70;78.35;100800.41;5020471;28;20269;-75
2022/02/24 08:51:52;;;;;;;5.37;2.27;;;;;;;4.78;76.97;100802.16;5035431;28;20235;-75
2022/02/24 08:54:18;;;;;;;5.73;2.50;;;;;;;4.83;77.61;100795.25;5018798;28;20201;-75
2022/02/24 08:56:46;;;;;;;8.53;2.23;;;;;;;4.87;77.50;100787.53;5018654;28;20207;-74
2022/02/24 08:59:12;;;;;;;4.20;2.40;;;;;;;4.92;77.96;100796.13;5016763;28;20212;-75
2022/02/24 09:01:39;;;;;;;4.20;2.33;;;;;;;5.00;77.01;100780.63;5015222;28;20900;-75
2022/02/24 09:04:05;;;;;;;5.50;2.30;;;;;;;5.08;75.94;100772.84;5022205;28;20203;-75
2022/02/24 09:06:32;;;;;;;39.07;12.50;;;;;;;5.12;77.14;100778.03;5014735;28;20200;-75
2022/02/24 09:08:58;;;;;;;7.20;2.77;;;;;;;5.15;76.13;100773.69;5024688;28;20204;-75
2022/02/24 09:11:25;;;;;;;8.03;4.13;;;;;;;5.19;76.12;100760.78;5020275;28;20223;-75
2022/02/24 09:13:52;;;;;;;7.67;2.53;;;;;;;5.30;75.46;100758.16;5019265;28;20208;-76
2022/02/24 09:16:19;;;;;;;6.30;2.70;;;;;;;5.40;76.50;100751.22;5018056;28;20214;-76
2022/02/24 09:18:46;;;;;;;4.97;2.40;;;;;;;5.46;75.42;100756.41;5021271;28;20197;-74
2022/02/24 09:21:12;;;;;;;9.17;3.63;;;;;;;5.55;75.20;100752.94;5022177;28;20219;-75
2022/02/24 09:23:39;;;;;;;9.63;4.83;;;;;;;5.65;75.10;100752.03;5019178;28;20197;-75
2022/02/24 09:26:05;;;;;;;7.83;3.20;;;;;;;5.67;75.30;100756.31;5023920;28;21061;-77
2022/02/24 09:28:32;;;;;;;8.40;3.70;;;;;;;5.77;75.69;100744.22;5021538;28;20573;-73
2022/02/24 09:30:59;;;;;;;6.80;4.00;;;;;;;6.02;74.89;100741.53;5017060;28;20231;-75
2022/02/24 09:33:26;;;;;;;5.30;2.77;;;;;;;6.23;73.99;100738.81;5022824;28;22052;-74
2022/02/24 09:35:53;;;;;;;7.87;2.40;;;;;;;6.30;73.49;100733.59;5019564;28;20207;-75
2022/02/24 09:38:19;;;;;;;6.93;2.57;;;;;;;6.26;73.11;100737.94;5030514;28;20200;-75
2022/02/24 09:41:11;;;;;;;5.53;2.53;;;;;;;6.31;73.94;100735.31;5028868;28;20211;-74
2022/02/24 09:43:38;;;;;;;7.67;2.67;;;;;;;6.29;73.40;100727.56;5018021;28;20212;-73
2022/02/24 09:46:08;;;;;;;5.27;2.87;;;;;;;6.29;73.25;100729.28;5022584;28;20863;-74
2022/02/24 09:48:36;;;;;;;7.37;2.67;;;;;;;6.34;73.82;100730.97;5032740;28;20216;-74
2022/02/24 09:51:05;;;;;;;5.97;2.57;;;;;;;6.42;73.42;100720.53;5019118;28;20229;-75
2022/02/24 09:53:34;;;;;;;6.67;2.73;;;;;;;6.44;73.05;100713.66;5023929;28;20196;-75
2022/02/24 09:56:02;;;;;;;7.30;2.63;;;;;;;6.49;72.84;100713.59;5023576;28;20657;-73
2022/02/24 09:59:00;;;;;;;6.00;2.87;;;;;;;6.56;73.72;100710.06;5025662;28;20219;-74
2022/02/24 10:01:28;;;;;;;5.80;2.73;;;;;;;6.60;73.60;100704.88;5023260;28;20287;-75
2022/02/24 10:03:57;;;;;;;4.77;3.10;;;;;;;6.66;72.15;100709.13;5019578;28;20346;-73
2022/02/24 10:06:34;;;;;;;9.33;3.87;;;;;;;6.70;72.82;100700.47;5025755;28;20204;-74
2022/02/24 10:09:50;;;;;;;7.40;3.17;;;;;;;6.71;72.60;100698.75;5030307;28;20231;-73
2022/02/24 10:12:58;;;;;;;5.17;3.00;;;;;;;6.76;72.94;100695.22;5018152;28;20295;-73
2022/02/24 10:15:25;;;;;;;7.47;2.70;;;;;;;6.89;72.72;100685.59;5019665;28;20253;-74
2022/02/24 10:18:09;;;;;;;4.03;2.40;;;;;;;6.91;72.51;100686.47;5019223;28;20211;-75
2022/02/24 10:20:40;;;;;;;3.67;1.87;;;;;;;6.97;71.91;100677.75;5018312;28;20216;-74
2022/02/24 10:23:09;;;;;;;4.40;2.20;;;;;;;7.02;72.29;100681.16;5022684;28;20197;-74
2022/02/24 10:25:41;;;;;;;4.10;2.00;;;;;;;7.11;71.31;100678.47;5032139;28;20224;-76
2022/02/24 10:28:08;;;;;;;4.67;2.37;;;;;;;7.12;71.71;100674.13;5016881;28;20214;-79
2022/02/24 10:30:34;;;;;;;5.40;2.47;;;;;;;7.15;71.82;100677.53;5017814;28;20220;-75
2022/02/24 10:33:01;;;;;;;3.93;2.47;;;;;;;7.23;71.41;100667.09;5020367;28;20223;-75
2022/02/24 10:35:31;;;;;;;5.50;2.33;;;;;;;7.33;71.01;100660.91;5023504;28;20196;-73
2022/02/24 10:38:00;;;;;;;5.70;2.73;;;;;;;7.29;70.23;100658.38;5017002;28;20550;-75
2022/02/24 10:44:22;;;;;;;3.20;2.13;;;;;;;7.28;71.00;100654.06;5020691;28;20727;-74
2022/02/24 10:46:51;;;;;;;3.27;2.37;;;;;;;7.26;71.83;100643.69;5020385;28;20414;-74
2022/02/24 10:49:29;;;;;;;5.77;2.60;;;;;;;7.26;71.23;100635.91;5017272;28;20671;-76
2022/02/24 10:52:15;;;;;;;6.97;2.83;;;;;;;7.20;71.59;100636.00;5020445;28;20227;-74
2022/02/24 10:54:43;;;;;;;5.73;2.37;;;;;;;7.28;71.37;100629.00;5012539;28;20211;-74
2022/02/24 10:57:20;;;;;;;5.30;2.23;;;;;;;7.45;72.38;100622.72;5023360;28;20651;-75
2022/02/24 10:59:47;;;;;;;4.47;2.17;;;;;;;7.53;70.53;100628.69;5016956;28;20218;-74
2022/02/24 11:02:14;;;;;;;4.63;2.60;;;;;;;7.65;70.83;100625.03;5023231;28;20650;-75
2022/02/24 11:04:42;;;;;;;4.30;2.30;;;;;;;7.76;70.92;100616.25;5022755;28;20208;-74
2022/02/24 11:07:09;;;;;;;4.17;2.10;;;;;;;7.82;69.65;100619.63;5022714;28;20215;-75
2022/02/24 11:09:38;;;;;;;9.63;3.90;;;;;;;7.89;69.39;100613.47;5024327;28;20206;-73
2022/02/24 11:12:07;;;;;;;5.10;2.70;;;;;;;8.01;70.61;100599.44;5021629;28;20724;-75
2022/02/24 11:14:35;;;;;;;4.63;2.50;;;;;;;8.11;69.97;100609.66;5025302;28;20201;-74
2022/02/24 11:17:04;;;;;;;4.33;2.13;;;;;;;8.14;67.39;100598.34;5024626;28;20188;-74
2022/02/24 11:19:32;;;;;;;3.23;2.00;;;;;;;8.23;67.12;100602.53;5023558;28;20203;-72
2022/02/24 11:21:59;;;;;;;4.63;2.20;;;;;;;8.15;66.75;100587.06;5021007;28;20226;-75
2022/02/24 11:24:26;;;;;;;3.87;1.80;;;;;;;8.07;67.38;100582.03;5026586;28;20742;-74
2022/02/24 11:26:58;;;;;;;3.17;1.90;;;;;;;8.00;67.68;100571.75;5021398;28;20931;-75
2022/02/24 11:29:30;;;;;;;5.37;1.90;;;;;;;7.93;66.31;100577.06;5015096;28;20210;-73